PWSweather.com
Personal Weather Stations
Station Observations
SONYA
Sergiev PosadRU

Sergiev PosadRU

Lat: 56.28148651, Lon: 38.05462646

Elevation: 741

Station Type: Fine offset WH1091

High Low Average
Temperature 39.0°F3.9°C 30.9°F-0.6°C 34.0°F1.1°C
Dew Point 34.4°F1.3°C 28.1°F-2.2°C 30.7°F-0.7°C
Winds 8.3 mph 13.4 kmh Calm Calm 4.0 mph E6.4 kmh E
Wind Gusts 12.1 mph19.5 kmh 2.2 mph3.5 kmh 6.0 mph9.7 kmh
Humidity 90% 72% 83%
Pressure 30.29 in1025.7 mb 30.24 in1024.0 mb -
Precipitation 0.00 in0.0 mm - -
Hour Temp Dew Point Humidity Winds Wind Gusts Pressure Precip Precip Rate Daily Precip Total
12:02 AM 33.6°F0.9°C 31.1°F-0.5°C 87% 2.2 mph E3.5 kmh E 4.5 mph7.2 kmh 30.24 in1024.0 mb 0.00 in0.0 mm 0.00 in0.0 mm 0.00 in0.0 mm
12:07 AM 33.6°F0.9°C 31.1°F-0.5°C 87% 6.0 mph SE9.7 kmh SE 8.3 mph13.4 kmh 30.24 in1024.0 mb 0.00 in0.0 mm 0.00 in0.0 mm 0.00 in0.0 mm
12:12 AM 33.6°F0.9°C 31.3°F-0.4°C 88% 2.2 mph NE3.5 kmh NE 3.8 mph6.1 kmh 30.25 in1024.4 mb 0.00 in0.0 mm 0.00 in0.0 mm 0.00 in0.0 mm
12:17 AM 33.6°F0.9°C 31.3°F-0.4°C 88% 1.6 mph NE2.6 kmh NE 2.2 mph3.5 kmh 30.24 in1024.0 mb 0.00 in0.0 mm 0.00 in0.0 mm 0.00 in0.0 mm
12:22 AM 33.6°F0.9°C 31.3°F-0.4°C 88% 5.4 mph 8.7 kmh 8.3 mph13.4 kmh 30.24 in1024.0 mb 0.00 in0.0 mm 0.00 in0.0 mm 0.00 in0.0 mm
12:27 AM 33.6°F0.9°C 31.3°F-0.4°C 88% 3.1 mph E5.0 kmh E 6.0 mph9.7 kmh 30.24 in1024.0 mb 0.00 in0.0 mm 0.00 in0.0 mm 0.00 in0.0 mm
12:32 AM 33.6°F0.9°C 31.3°F-0.4°C 88% 2.2 mph SE3.5 kmh SE 3.1 mph5.0 kmh 30.25 in1024.4 mb 0.00 in0.0 mm 0.00 in0.0 mm 0.00 in0.0 mm
12:37 AM 33.6°F0.9°C 31.3°F-0.4°C 88% 2.2 mph SE3.5 kmh SE 6.9 mph11.1 kmh 30.25 in1024.4 mb 0.00 in0.0 mm 0.00 in0.0 mm 0.00 in0.0 mm
12:42 AM 33.6°F0.9°C 31.3°F-0.4°C 88% 3.8 mph NE6.1 kmh NE 5.4 mph8.7 kmh 30.24 in1024.0 mb 0.00 in0.0 mm 0.00 in0.0 mm 0.00 in0.0 mm
12:47 AM 33.6°F0.9°C 31.3°F-0.4°C 88% 4.5 mph NE7.2 kmh NE 6.9 mph11.1 kmh 30.25 in1024.4 mb 0.00 in0.0 mm 0.00 in0.0 mm 0.00 in0.0 mm
12:52 AM 33.6°F0.9°C 31.3°F-0.4°C 88% 3.8 mph E6.1 kmh E 7.6 mph12.2 kmh 30.25 in1024.4 mb 0.00 in0.0 mm 0.00 in0.0 mm 0.00 in0.0 mm
12:57 AM 33.6°F0.9°C 31.3°F-0.4°C 88% 1.6 mph E2.6 kmh E 3.1 mph5.0 kmh 30.24 in1024.0 mb 0.00 in0.0 mm 0.00 in0.0 mm 0.00 in0.0 mm
01:02 AM 33.6°F0.9°C 31.3°F-0.4°C 88% 4.5 mph NE7.2 kmh NE 6.9 mph11.1 kmh 30.25 in1024.4 mb 0.00 in0.0 mm 0.00 in0.0 mm 0.00 in0.0 mm
01:07 AM 33.6°F0.9°C 31.3°F-0.4°C 88% 3.1 mph NE5.0 kmh NE 4.5 mph7.2 kmh 30.24 in1024.0 mb 0.00 in0.0 mm 0.00 in0.0 mm 0.00 in0.0 mm
01:12 AM 33.4°F0.8°C 31.2°F-0.4°C 88% 5.4 mph SE8.7 kmh SE 9.2 mph14.8 kmh 30.25 in1024.4 mb 0.00 in0.0 mm 0.00 in0.0 mm 0.00 in0.0 mm
01:17 AM 33.6°F0.9°C 31.3°F-0.4°C 88% 4.5 mph SE7.2 kmh SE 6.9 mph11.1 kmh 30.25 in1024.4 mb 0.00 in0.0 mm 0.00 in0.0 mm 0.00 in0.0 mm
01:22 AM 33.4°F0.8°C 31.2°F-0.4°C 88% 3.8 mph S6.1 kmh S 6.0 mph9.7 kmh 30.24 in1024.0 mb 0.00 in0.0 mm 0.00 in0.0 mm 0.00 in0.0 mm
01:27 AM 33.4°F0.8°C 31.2°F-0.4°C 88% 3.8 mph NNE6.1 kmh NNE 6.0 mph9.7 kmh 30.25 in1024.4 mb 0.00 in0.0 mm 0.00 in0.0 mm 0.00 in0.0 mm
01:32 AM 33.4°F0.8°C 31.2°F-0.4°C 88% 4.5 mph E7.2 kmh E 8.3 mph13.4 kmh 30.25 in1024.4 mb 0.00 in0.0 mm 0.00 in0.0 mm 0.00 in0.0 mm
01:37 AM 33.4°F0.8°C 31.2°F-0.4°C 88% 3.1 mph S5.0 kmh S 8.3 mph13.4 kmh 30.25 in1024.4 mb 0.00 in0.0 mm 0.00 in0.0 mm 0.00 in0.0 mm
01:42 AM 33.4°F0.8°C 31.2°F-0.4°C 88% 4.5 mph E7.2 kmh E 7.6 mph12.2 kmh 30.24 in1024.0 mb 0.00 in0.0 mm 0.00 in0.0 mm 0.00 in0.0 mm
01:47 AM 33.4°F0.8°C 31.2°F-0.4°C 88% 3.8 mph E6.1 kmh E 6.9 mph11.1 kmh 30.25 in1024.4 mb 0.00 in0.0 mm 0.00 in0.0 mm 0.00 in0.0 mm
01:52 AM 33.4°F0.8°C 31.2°F-0.4°C 88% 5.4 mph SE8.7 kmh SE 10.7 mph17.2 kmh 30.24 in1024.0 mb 0.00 in0.0 mm 0.00 in0.0 mm 0.00 in0.0 mm
01:57 AM 33.4°F0.8°C 31.2°F-0.4°C 88% 3.8 mph NE6.1 kmh NE 6.9 mph11.1 kmh 30.25 in1024.4 mb 0.00 in0.0 mm 0.00 in0.0 mm 0.00 in0.0 mm
02:02 AM 33.4°F0.8°C 31.2°F-0.4°C 88% 6.9 mph E11.1 kmh E 10.7 mph17.2 kmh 30.25 in1024.4 mb 0.00 in0.0 mm 0.00 in0.0 mm 0.00 in0.0 mm
02:07 AM 33.4°F0.8°C 31.2°F-0.4°C 88% 6.0 mph E9.7 kmh E 11.4 mph18.3 kmh 30.24 in1024.0 mb 0.00 in0.0 mm 0.00 in0.0 mm 0.00 in0.0 mm
02:12 AM 33.6°F0.9°C 31.3°F-0.4°C 88% 5.4 mph 8.7 kmh 7.6 mph12.2 kmh 30.25 in1024.4 mb 0.00 in0.0 mm 0.00 in0.0 mm 0.00 in0.0 mm
02:17 AM 33.6°F0.9°C 31.3°F-0.4°C 88% 6.0 mph E9.7 kmh E 9.2 mph14.8 kmh 30.24 in1024.0 mb 0.00 in0.0 mm 0.00 in0.0 mm 0.00 in0.0 mm
02:22 AM 33.6°F0.9°C 31.5°F-0.3°C 89% 3.8 mph NE6.1 kmh NE 6.9 mph11.1 kmh 30.25 in1024.4 mb 0.00 in0.0 mm 0.00 in0.0 mm 0.00 in0.0 mm
02:27 AM 33.6°F0.9°C 31.5°F-0.3°C 89% 2.2 mph NE3.5 kmh NE 3.8 mph6.1 kmh 30.25 in1024.4 mb 0.00 in0.0 mm 0.00 in0.0 mm 0.00 in0.0 mm
02:32 AM 33.6°F0.9°C 31.5°F-0.3°C 89% 2.2 mph SE3.5 kmh SE 3.8 mph6.1 kmh 30.25 in1024.4 mb 0.00 in0.0 mm 0.00 in0.0 mm 0.00 in0.0 mm
02:37 AM 33.6°F0.9°C 31.5°F-0.3°C 89% 3.1 mph E5.0 kmh E 5.4 mph8.7 kmh 30.25 in1024.4 mb 0.00 in0.0 mm 0.00 in0.0 mm 0.00 in0.0 mm
02:42 AM 33.6°F0.9°C 31.5°F-0.3°C 89% 2.2 mph SE3.5 kmh SE 4.5 mph7.2 kmh 30.25 in1024.4 mb 0.00 in0.0 mm 0.00 in0.0 mm 0.00 in0.0 mm
02:47 AM 33.6°F0.9°C 31.5°F-0.3°C 89% 5.4 mph SE8.7 kmh SE 7.6 mph12.2 kmh 30.26 in1024.7 mb 0.00 in0.0 mm 0.00 in0.0 mm 0.00 in0.0 mm
02:52 AM 33.6°F0.9°C 31.5°F-0.3°C 89% 2.2 mph NE3.5 kmh NE 4.5 mph7.2 kmh 30.25 in1024.4 mb 0.00 in0.0 mm 0.00 in0.0 mm 0.00 in0.0 mm
02:57 AM 33.6°F0.9°C 31.5°F-0.3°C 89% 3.1 mph E5.0 kmh E 6.0 mph9.7 kmh 30.25 in1024.4 mb 0.00 in0.0 mm 0.00 in0.0 mm 0.00 in0.0 mm
03:02 AM 33.6°F0.9°C 31.5°F-0.3°C 89% 3.8 mph 6.1 kmh 5.4 mph8.7 kmh 30.26 in1024.7 mb 0.00 in0.0 mm 0.00 in0.0 mm 0.00 in0.0 mm
03:07 AM 33.4°F0.8°C 31.4°F-0.3°C 89% 3.1 mph NE5.0 kmh NE 6.0 mph9.7 kmh 30.25 in1024.4 mb 0.00 in0.0 mm 0.00 in0.0 mm 0.00 in0.0 mm
03:12 AM 33.4°F0.8°C 31.4°F-0.3°C 89% 3.1 mph SE5.0 kmh SE 5.4 mph8.7 kmh 30.26 in1024.7 mb 0.00 in0.0 mm 0.00 in0.0 mm 0.00 in0.0 mm
03:17 AM 33.4°F0.8°C 31.4°F-0.3°C 89% 1.6 mph NW2.6 kmh NW 3.8 mph6.1 kmh 30.26 in1024.7 mb 0.00 in0.0 mm 0.00 in0.0 mm 0.00 in0.0 mm
03:22 AM 33.4°F0.8°C 31.4°F-0.3°C 89% 3.8 mph SE6.1 kmh SE 4.5 mph7.2 kmh 30.26 in1024.7 mb 0.00 in0.0 mm 0.00 in0.0 mm 0.00 in0.0 mm
03:27 AM 33.4°F0.8°C 31.2°F-0.4°C 88% 1.6 mph S2.6 kmh S 3.8 mph6.1 kmh 30.26 in1024.7 mb 0.00 in0.0 mm 0.00 in0.0 mm 0.00 in0.0 mm
03:32 AM 33.4°F0.8°C 31.2°F-0.4°C 88% 4.5 mph E7.2 kmh E 7.6 mph12.2 kmh 30.26 in1024.7 mb 0.00 in0.0 mm 0.00 in0.0 mm 0.00 in0.0 mm
03:37 AM 33.3°F0.7°C 31.0°F-0.6°C 88% 3.1 mph NE5.0 kmh NE 7.6 mph12.2 kmh 30.26 in1024.7 mb 0.00 in0.0 mm 0.00 in0.0 mm 0.00 in0.0 mm
03:42 AM 33.3°F0.7°C 31.0°F-0.6°C 88% 3.1 mph NE5.0 kmh NE 6.0 mph9.7 kmh 30.26 in1024.7 mb 0.00 in0.0 mm 0.00 in0.0 mm 0.00 in0.0 mm
03:47 AM 33.3°F0.7°C 31.0°F-0.6°C 88% 3.8 mph E6.1 kmh E 6.0 mph9.7 kmh 30.26 in1024.7 mb 0.00 in0.0 mm 0.00 in0.0 mm 0.00 in0.0 mm
03:52 AM 33.3°F0.7°C 31.0°F-0.6°C 88% 1.6 mph E2.6 kmh E 3.1 mph5.0 kmh 30.26 in1024.7 mb 0.00 in0.0 mm 0.00 in0.0 mm 0.00 in0.0 mm
03:57 AM 33.1°F0.6°C 30.8°F-0.7°C 88% 2.2 mph SE3.5 kmh SE 4.5 mph7.2 kmh 30.26 in1024.7 mb 0.00 in0.0 mm 0.00 in0.0 mm 0.00 in0.0 mm
04:02 AM 33.1°F0.6°C 30.8°F-0.7°C 88% 2.2 mph SE3.5 kmh SE 3.8 mph6.1 kmh 30.26 in1024.7 mb 0.00 in0.0 mm 0.00 in0.0 mm 0.00 in0.0 mm
04:07 AM 33.1°F0.6°C 30.8°F-0.7°C 88% 3.1 mph NE5.0 kmh NE 4.5 mph7.2 kmh 30.26 in1024.7 mb 0.00 in0.0 mm 0.00 in0.0 mm 0.00 in0.0 mm
04:12 AM 33.1°F0.6°C 30.8°F-0.7°C 88% 4.5 mph 7.2 kmh 6.9 mph11.1 kmh 30.26 in1024.7 mb 0.00 in0.0 mm 0.00 in0.0 mm 0.00 in0.0 mm
04:17 AM 32.9°F0.5°C 30.6°F-0.8°C 88% 3.1 mph E5.0 kmh E 6.0 mph9.7 kmh 30.26 in1024.7 mb 0.00 in0.0 mm 0.00 in0.0 mm 0.00 in0.0 mm
04:22 AM 32.9°F0.5°C 30.6°F-0.8°C 88% 2.2 mph 3.5 kmh 3.1 mph5.0 kmh 30.26 in1024.7 mb 0.00 in0.0 mm 0.00 in0.0 mm 0.00 in0.0 mm
04:27 AM 32.9°F0.5°C 30.6°F-0.8°C 88% 4.5 mph NE7.2 kmh NE 8.3 mph13.4 kmh 30.26 in1024.7 mb 0.00 in0.0 mm 0.00 in0.0 mm 0.00 in0.0 mm
04:32 AM 32.9°F0.5°C 30.6°F-0.8°C 88% 2.2 mph SE3.5 kmh SE 5.4 mph8.7 kmh 30.26 in1024.7 mb 0.00 in0.0 mm 0.00 in0.0 mm 0.00 in0.0 mm
04:37 AM 32.9°F0.5°C 30.6°F-0.8°C 88% 6.0 mph E9.7 kmh E 6.9 mph11.1 kmh 30.26 in1024.7 mb 0.00 in0.0 mm 0.00 in0.0 mm 0.00 in0.0 mm
04:42 AM 32.9°F0.5°C 30.6°F-0.8°C 88% 1.6 mph S2.6 kmh S 3.8 mph6.1 kmh 30.26 in1024.7 mb 0.00 in0.0 mm 0.00 in0.0 mm 0.00 in0.0 mm
04:47 AM 32.9°F0.5°C 30.6°F-0.8°C 88% 3.8 mph NW6.1 kmh NW 5.4 mph8.7 kmh 30.26 in1024.7 mb 0.00 in0.0 mm 0.00 in0.0 mm 0.00 in0.0 mm
04:52 AM 32.9°F0.5°C 30.6°F-0.8°C 88% 4.5 mph ENE7.2 kmh ENE 7.6 mph12.2 kmh 30.26 in1024.7 mb 0.00 in0.0 mm 0.00 in0.0 mm 0.00 in0.0 mm
04:57 AM 32.7°F0.4°C 30.5°F-0.8°C 88% 2.2 mph E3.5 kmh E 4.5 mph7.2 kmh 30.26 in1024.7 mb 0.00 in0.0 mm 0.00 in0.0 mm 0.00 in0.0 mm
05:02 AM 32.7°F0.4°C 30.5°F-0.8°C 88% 3.8 mph NE6.1 kmh NE 6.0 mph9.7 kmh 30.26 in1024.7 mb 0.00 in0.0 mm 0.00 in0.0 mm 0.00 in0.0 mm
05:07 AM 32.7°F0.4°C 30.5°F-0.8°C 88% 2.2 mph NE3.5 kmh NE 4.5 mph7.2 kmh 30.26 in1024.7 mb 0.00 in0.0 mm 0.00 in0.0 mm 0.00 in0.0 mm
05:12 AM 32.7°F0.4°C 30.5°F-0.8°C 88% 3.1 mph 5.0 kmh 5.4 mph8.7 kmh 30.26 in1024.7 mb 0.00 in0.0 mm 0.00 in0.0 mm 0.00 in0.0 mm
05:17 AM 32.5°F0.3°C 30.3°F-0.9°C 88% 4.5 mph NE7.2 kmh NE 6.9 mph11.1 kmh 30.26 in1024.7 mb 0.00 in0.0 mm 0.00 in0.0 mm 0.00 in0.0 mm
05:22 AM 32.5°F0.3°C 30.3°F-0.9°C 88% 3.1 mph 5.0 kmh 5.4 mph8.7 kmh 30.26 in1024.7 mb 0.00 in0.0 mm 0.00 in0.0 mm 0.00 in0.0 mm
05:27 AM 32.5°F0.3°C 30.3°F-0.9°C 88% 3.1 mph SE5.0 kmh SE 4.5 mph7.2 kmh 30.26 in1024.7 mb 0.00 in0.0 mm 0.00 in0.0 mm 0.00 in0.0 mm
05:32 AM 32.5°F0.3°C 30.3°F-0.9°C 88% 3.1 mph E5.0 kmh E 5.4 mph8.7 kmh 30.26 in1024.7 mb 0.00 in0.0 mm 0.00 in0.0 mm 0.00 in0.0 mm
05:37 AM 32.5°F0.3°C 30.3°F-0.9°C 88% 4.5 mph NE7.2 kmh NE 6.0 mph9.7 kmh 30.27 in1025.1 mb 0.00 in0.0 mm 0.00 in0.0 mm 0.00 in0.0 mm
05:42 AM 32.5°F0.3°C 30.3°F-0.9°C 88% 4.5 mph S7.2 kmh S 6.0 mph9.7 kmh 30.26 in1024.7 mb 0.00 in0.0 mm 0.00 in0.0 mm 0.00 in0.0 mm
05:47 AM 32.4°F0.2°C 30.1°F-1.1°C 88% 3.8 mph 6.1 kmh 6.0 mph9.7 kmh 30.26 in1024.7 mb 0.00 in0.0 mm 0.00 in0.0 mm 0.00 in0.0 mm
05:52 AM 32.5°F0.3°C 30.3°F-0.9°C 88% 2.2 mph S3.5 kmh S 6.0 mph9.7 kmh 30.25 in1024.4 mb 0.00 in0.0 mm 0.00 in0.0 mm 0.00 in0.0 mm
05:57 AM 32.4°F0.2°C 30.1°F-1.1°C 88% 3.8 mph S6.1 kmh S 6.0 mph9.7 kmh 30.26 in1024.7 mb 0.00 in0.0 mm 0.00 in0.0 mm 0.00 in0.0 mm
06:02 AM 32.4°F0.2°C 30.1°F-1.1°C 88% 6.0 mph SE9.7 kmh SE 9.8 mph15.8 kmh 30.25 in1024.4 mb 0.00 in0.0 mm 0.00 in0.0 mm 0.00 in0.0 mm
06:07 AM 32.4°F0.2°C 30.3°F-0.9°C 89% 5.4 mph E8.7 kmh E 8.3 mph13.4 kmh 30.26 in1024.7 mb 0.00 in0.0 mm 0.00 in0.0 mm 0.00 in0.0 mm
06:12 AM 32.4°F0.2°C 30.3°F-0.9°C 89% 3.8 mph 6.1 kmh 6.9 mph11.1 kmh 30.26 in1024.7 mb 0.00 in0.0 mm 0.00 in0.0 mm 0.00 in0.0 mm
06:17 AM 32.4°F0.2°C 30.3°F-0.9°C 89% 2.2 mph NE3.5 kmh NE 4.5 mph7.2 kmh 30.26 in1024.7 mb 0.00 in0.0 mm 0.00 in0.0 mm 0.00 in0.0 mm
06:22 AM 32.4°F0.2°C 30.3°F-0.9°C 89% 5.4 mph E8.7 kmh E 6.9 mph11.1 kmh 30.27 in1025.1 mb 0.00 in0.0 mm 0.00 in0.0 mm 0.00 in0.0 mm
06:27 AM 32.4°F0.2°C 30.3°F-0.9°C 89% 3.8 mph WSW6.1 kmh WSW 5.4 mph8.7 kmh 30.27 in1025.1 mb 0.00 in0.0 mm 0.00 in0.0 mm 0.00 in0.0 mm
06:32 AM 32.2°F0.1°C 30.1°F-1.1°C 89% 3.8 mph NE6.1 kmh NE 8.3 mph13.4 kmh 30.27 in1025.1 mb 0.00 in0.0 mm 0.00 in0.0 mm 0.00 in0.0 mm
06:37 AM 32.2°F0.1°C 30.1°F-1.1°C 89% 1.6 mph 2.6 kmh 3.8 mph6.1 kmh 30.26 in1024.7 mb 0.00 in0.0 mm 0.00 in0.0 mm 0.00 in0.0 mm
06:42 AM 32.2°F0.1°C 30.1°F-1.1°C 89% 3.1 mph NE5.0 kmh NE 4.5 mph7.2 kmh 30.26 in1024.7 mb 0.00 in0.0 mm 0.00 in0.0 mm 0.00 in0.0 mm
06:47 AM 32.2°F0.1°C 30.1°F-1.1°C 89% 3.8 mph SE6.1 kmh SE 6.9 mph11.1 kmh 30.26 in1024.7 mb 0.00 in0.0 mm 0.00 in0.0 mm 0.00 in0.0 mm
06:52 AM 32.2°F0.1°C 30.1°F-1.1°C 89% 3.1 mph SE5.0 kmh SE 4.5 mph7.2 kmh 30.26 in1024.7 mb 0.00 in0.0 mm 0.00 in0.0 mm 0.00 in0.0 mm
06:57 AM 32.2°F0.1°C 30.1°F-1.1°C 89% 3.1 mph SE5.0 kmh SE 6.0 mph9.7 kmh 30.27 in1025.1 mb 0.00 in0.0 mm 0.00 in0.0 mm 0.00 in0.0 mm
07:02 AM 32.2°F0.1°C 30.1°F-1.1°C 89% 4.5 mph E7.2 kmh E 6.9 mph11.1 kmh 30.27 in1025.1 mb 0.00 in0.0 mm 0.00 in0.0 mm 0.00 in0.0 mm
07:07 AM 32.2°F0.1°C 30.1°F-1.1°C 89% 3.8 mph 6.1 kmh 6.9 mph11.1 kmh 30.27 in1025.1 mb 0.00 in0.0 mm 0.00 in0.0 mm 0.00 in0.0 mm
07:12 AM 32.2°F0.1°C 30.1°F-1.1°C 89% 3.1 mph SE5.0 kmh SE 7.6 mph12.2 kmh 30.27 in1025.1 mb 0.00 in0.0 mm 0.00 in0.0 mm 0.00 in0.0 mm
07:17 AM 32.2°F0.1°C 30.1°F-1.1°C 89% 2.2 mph NE3.5 kmh NE 3.8 mph6.1 kmh 30.27 in1025.1 mb 0.00 in0.0 mm 0.00 in0.0 mm 0.00 in0.0 mm
07:22 AM 32.2°F0.1°C 30.1°F-1.1°C 89% 2.2 mph E3.5 kmh E 4.5 mph7.2 kmh 30.27 in1025.1 mb 0.00 in0.0 mm 0.00 in0.0 mm 0.00 in0.0 mm
07:27 AM 32.2°F0.1°C 30.1°F-1.1°C 89% 3.1 mph NW5.0 kmh NW 6.0 mph9.7 kmh 30.28 in1025.4 mb 0.00 in0.0 mm 0.00 in0.0 mm 0.00 in0.0 mm
07:32 AM 32.0°F0.0°C 30.0°F-1.1°C 89% 2.2 mph 3.5 kmh 3.8 mph6.1 kmh 30.27 in1025.1 mb 0.00 in0.0 mm 0.00 in0.0 mm 0.00 in0.0 mm
07:37 AM 32.0°F0.0°C 30.0°F-1.1°C 89% 2.2 mph E3.5 kmh E 5.4 mph8.7 kmh 30.27 in1025.1 mb 0.00 in0.0 mm 0.00 in0.0 mm 0.00 in0.0 mm
07:42 AM 32.0°F0.0°C 30.0°F-1.1°C 89% 3.1 mph E5.0 kmh E 4.5 mph7.2 kmh 30.28 in1025.4 mb 0.00 in0.0 mm 0.00 in0.0 mm 0.00 in0.0 mm
07:47 AM 32.0°F0.0°C 30.0°F-1.1°C 89% 0.7 mph E1.1 kmh E 2.2 mph3.5 kmh 30.27 in1025.1 mb 0.00 in0.0 mm 0.00 in0.0 mm 0.00 in0.0 mm
07:52 AM 31.8°F-0.1°C 30.0°F-1.1°C 90% 2.2 mph SE3.5 kmh SE 3.1 mph5.0 kmh 30.28 in1025.4 mb 0.00 in0.0 mm 0.00 in0.0 mm 0.00 in0.0 mm
07:57 AM 31.8°F-0.1°C 30.0°F-1.1°C 90% 1.6 mph NW2.6 kmh NW 3.1 mph5.0 kmh 30.28 in1025.4 mb 0.00 in0.0 mm 0.00 in0.0 mm 0.00 in0.0 mm
08:02 AM 31.8°F-0.1°C 30.0°F-1.1°C 90% 1.6 mph SE2.6 kmh SE 3.1 mph5.0 kmh 30.28 in1025.4 mb 0.00 in0.0 mm 0.00 in0.0 mm 0.00 in0.0 mm
08:07 AM 31.8°F-0.1°C 30.0°F-1.1°C 90% 3.1 mph NE5.0 kmh NE 4.5 mph7.2 kmh 30.28 in1025.4 mb 0.00 in0.0 mm 0.00 in0.0 mm 0.00 in0.0 mm
08:12 AM 31.8°F-0.1°C 30.0°F-1.1°C 90% 2.2 mph S3.5 kmh S 3.8 mph6.1 kmh 30.28 in1025.4 mb 0.00 in0.0 mm 0.00 in0.0 mm 0.00 in0.0 mm
08:17 AM 31.8°F-0.1°C 30.0°F-1.1°C 90% Calm Calm 2.2 mph3.5 kmh 30.29 in1025.7 mb 0.00 in0.0 mm 0.00 in0.0 mm 0.00 in0.0 mm
08:22 AM 31.8°F-0.1°C 30.0°F-1.1°C 90% 2.2 mph NE3.5 kmh NE 3.8 mph6.1 kmh 30.28 in1025.4 mb 0.00 in0.0 mm 0.00 in0.0 mm 0.00 in0.0 mm
08:27 AM 31.8°F-0.1°C 30.0°F-1.1°C 90% 2.2 mph NE3.5 kmh NE 6.0 mph9.7 kmh 30.28 in1025.4 mb 0.00 in0.0 mm 0.00 in0.0 mm 0.00 in0.0 mm
08:32 AM 31.8°F-0.1°C 30.0°F-1.1°C 90% 3.1 mph E5.0 kmh E 3.8 mph6.1 kmh 30.28 in1025.4 mb 0.00 in0.0 mm 0.00 in0.0 mm 0.00 in0.0 mm
08:37 AM 31.8°F-0.1°C 30.0°F-1.1°C 90% 2.2 mph NE3.5 kmh NE 4.5 mph7.2 kmh 30.27 in1025.1 mb 0.00 in0.0 mm 0.00 in0.0 mm 0.00 in0.0 mm
08:42 AM 31.8°F-0.1°C 30.0°F-1.1°C 90% 3.1 mph SE5.0 kmh SE 4.5 mph7.2 kmh 30.28 in1025.4 mb 0.00 in0.0 mm 0.00 in0.0 mm 0.00 in0.0 mm
08:47 AM 31.8°F-0.1°C 30.0°F-1.1°C 90% 2.2 mph NE3.5 kmh NE 3.8 mph6.1 kmh 30.28 in1025.4 mb 0.00 in0.0 mm 0.00 in0.0 mm 0.00 in0.0 mm
08:52 AM 31.8°F-0.1°C 30.0°F-1.1°C 90% 2.2 mph E3.5 kmh E 3.8 mph6.1 kmh 30.28 in1025.4 mb 0.00 in0.0 mm 0.00 in0.0 mm 0.00 in0.0 mm
08:57 AM 32.0°F0.0°C 30.1°F-1.1°C 90% 3.1 mph NE5.0 kmh NE 6.9 mph11.1 kmh 30.28 in1025.4 mb 0.00 in0.0 mm 0.00 in0.0 mm 0.00 in0.0 mm
09:02 AM 32.0°F0.0°C 30.1°F-1.1°C 90% 3.1 mph E5.0 kmh E 4.5 mph7.2 kmh 30.28 in1025.4 mb 0.00 in0.0 mm 0.00 in0.0 mm 0.00 in0.0 mm
09:07 AM 32.0°F0.0°C 30.1°F-1.1°C 90% 2.2 mph S3.5 kmh S 5.4 mph8.7 kmh 30.28 in1025.4 mb 0.00 in0.0 mm 0.00 in0.0 mm 0.00 in0.0 mm
09:12 AM 32.2°F0.1°C 30.3°F-0.9°C 90% 2.2 mph NE3.5 kmh NE 4.5 mph7.2 kmh 30.28 in1025.4 mb 0.00 in0.0 mm 0.00 in0.0 mm 0.00 in0.0 mm
09:17 AM 32.2°F0.1°C 30.3°F-0.9°C 90% 4.5 mph NE7.2 kmh NE 7.6 mph12.2 kmh 30.27 in1025.1 mb 0.00 in0.0 mm 0.00 in0.0 mm 0.00 in0.0 mm
09:22 AM 32.4°F0.2°C 30.5°F-0.8°C 90% 1.6 mph S2.6 kmh S 3.8 mph6.1 kmh 30.28 in1025.4 mb 0.00 in0.0 mm 0.00 in0.0 mm 0.00 in0.0 mm
09:27 AM 32.5°F0.3°C 30.7°F-0.7°C 90% 4.5 mph S7.2 kmh S 8.3 mph13.4 kmh 30.27 in1025.1 mb 0.00 in0.0 mm 0.00 in0.0 mm 0.00 in0.0 mm
09:32 AM 32.5°F0.3°C 30.7°F-0.7°C 90% 2.2 mph NE3.5 kmh NE 3.1 mph5.0 kmh 30.27 in1025.1 mb 0.00 in0.0 mm 0.00 in0.0 mm 0.00 in0.0 mm
09:37 AM 32.5°F0.3°C 30.7°F-0.7°C 90% 6.0 mph 9.7 kmh 8.3 mph13.4 kmh 30.27 in1025.1 mb 0.00 in0.0 mm 0.00 in0.0 mm 0.00 in0.0 mm
09:42 AM 32.5°F0.3°C 30.7°F-0.7°C 90% 2.2 mph W3.5 kmh W 4.5 mph7.2 kmh 30.27 in1025.1 mb 0.00 in0.0 mm 0.00 in0.0 mm 0.00 in0.0 mm
09:47 AM 32.5°F0.3°C 30.7°F-0.7°C 90% 3.1 mph SE5.0 kmh SE 6.0 mph9.7 kmh 30.28 in1025.4 mb 0.00 in0.0 mm 0.00 in0.0 mm 0.00 in0.0 mm
09:52 AM 32.7°F0.4°C 30.9°F-0.6°C 90% 1.6 mph S2.6 kmh S 3.1 mph5.0 kmh 30.29 in1025.7 mb 0.00 in0.0 mm 0.00 in0.0 mm 0.00 in0.0 mm
09:57 AM 32.7°F0.4°C 30.9°F-0.6°C 90% 3.1 mph S5.0 kmh S 4.5 mph7.2 kmh 30.28 in1025.4 mb 0.00 in0.0 mm 0.00 in0.0 mm 0.00 in0.0 mm
10:02 AM 32.5°F0.3°C 30.7°F-0.7°C 90% 1.6 mph NE2.6 kmh NE 3.8 mph6.1 kmh 30.28 in1025.4 mb 0.00 in0.0 mm 0.00 in0.0 mm 0.00 in0.0 mm
10:07 AM 32.5°F0.3°C 30.7°F-0.7°C 90% 3.1 mph SE5.0 kmh SE 6.0 mph9.7 kmh 30.28 in1025.4 mb 0.00 in0.0 mm 0.00 in0.0 mm 0.00 in0.0 mm
10:12 AM 32.5°F0.3°C 30.7°F-0.7°C 90% 3.8 mph E6.1 kmh E 6.0 mph9.7 kmh 30.29 in1025.7 mb 0.00 in0.0 mm 0.00 in0.0 mm 0.00 in0.0 mm
10:17 AM 32.7°F0.4°C 30.9°F-0.6°C 90% 2.2 mph E3.5 kmh E 5.4 mph8.7 kmh 30.29 in1025.7 mb 0.00 in0.0 mm 0.00 in0.0 mm 0.00 in0.0 mm
10:22 AM 32.9°F0.5°C 31.0°F-0.6°C 90% 1.6 mph S2.6 kmh S 4.5 mph7.2 kmh 30.29 in1025.7 mb 0.00 in0.0 mm 0.00 in0.0 mm 0.00 in0.0 mm
10:27 AM 33.1°F0.6°C 31.2°F-0.4°C 90% 2.2 mph SE3.5 kmh SE 3.8 mph6.1 kmh 30.29 in1025.7 mb 0.00 in0.0 mm 0.00 in0.0 mm 0.00 in0.0 mm
10:32 AM 33.3°F0.7°C 31.4°F-0.3°C 90% 0.7 mph S1.1 kmh S 2.2 mph3.5 kmh 30.29 in1025.7 mb 0.00 in0.0 mm 0.00 in0.0 mm 0.00 in0.0 mm
10:37 AM 33.6°F0.9°C 31.7°F-0.2°C 90% 2.2 mph SW3.5 kmh SW 5.4 mph8.7 kmh 30.29 in1025.7 mb 0.00 in0.0 mm 0.00 in0.0 mm 0.00 in0.0 mm
10:42 AM 33.8°F1.0°C 31.7°F-0.2°C 89% 3.8 mph SE6.1 kmh SE 6.9 mph11.1 kmh 30.29 in1025.7 mb 0.00 in0.0 mm 0.00 in0.0 mm 0.00 in0.0 mm
10:47 AM 34.2°F1.2°C 32.1°F0.1°C 89% 2.2 mph NE3.5 kmh NE 4.5 mph7.2 kmh 30.29 in1025.7 mb 0.00 in0.0 mm 0.00 in0.0 mm 0.00 in0.0 mm
10:52 AM 34.7°F1.5°C 32.6°F0.3°C 89% 3.1 mph S5.0 kmh S 6.9 mph11.1 kmh 30.29 in1025.7 mb 0.00 in0.0 mm 0.00 in0.0 mm 0.00 in0.0 mm
10:57 AM 34.7°F1.5°C 32.4°F0.2°C 88% 2.2 mph SE3.5 kmh SE 6.0 mph9.7 kmh 30.29 in1025.7 mb 0.00 in0.0 mm 0.00 in0.0 mm 0.00 in0.0 mm
11:02 AM 34.7°F1.5°C 32.2°F0.1°C 87% 2.2 mph 3.5 kmh 4.5 mph7.2 kmh 30.29 in1025.7 mb 0.00 in0.0 mm 0.00 in0.0 mm 0.00 in0.0 mm
11:07 AM 34.9°F1.6°C 32.2°F0.1°C 86% 3.1 mph E5.0 kmh E 5.4 mph8.7 kmh 30.29 in1025.7 mb 0.00 in0.0 mm 0.00 in0.0 mm 0.00 in0.0 mm
11:12 AM 34.9°F1.6°C 32.0°F0.0°C 85% 2.2 mph E3.5 kmh E 3.8 mph6.1 kmh 30.29 in1025.7 mb 0.00 in0.0 mm 0.00 in0.0 mm 0.00 in0.0 mm
11:17 AM 35.1°F1.7°C 32.1°F0.1°C 85% 0.7 mph 1.1 kmh 2.2 mph3.5 kmh 30.29 in1025.7 mb 0.00 in0.0 mm 0.00 in0.0 mm 0.00 in0.0 mm
11:22 AM 35.2°F1.8°C 32.1°F0.1°C 84% 2.2 mph SE3.5 kmh SE 3.8 mph6.1 kmh 30.29 in1025.7 mb 0.00 in0.0 mm 0.00 in0.0 mm 0.00 in0.0 mm
11:27 AM 35.2°F1.8°C 31.9°F-0.1°C 83% 3.8 mph SE6.1 kmh SE 8.3 mph13.4 kmh 30.29 in1025.7 mb 0.00 in0.0 mm 0.00 in0.0 mm 0.00 in0.0 mm
11:32 AM 35.2°F1.8°C 31.7°F-0.2°C 82% 4.5 mph 7.2 kmh 7.6 mph12.2 kmh 30.28 in1025.4 mb 0.00 in0.0 mm 0.00 in0.0 mm 0.00 in0.0 mm
11:37 AM 35.6°F2.0°C 31.8°F-0.1°C 81% 2.2 mph E3.5 kmh E 3.8 mph6.1 kmh 30.29 in1025.7 mb 0.00 in0.0 mm 0.00 in0.0 mm 0.00 in0.0 mm
11:42 AM 36.0°F2.2°C 31.9°F-0.1°C 80% 4.5 mph 7.2 kmh 6.9 mph11.1 kmh 30.28 in1025.4 mb 0.00 in0.0 mm 0.00 in0.0 mm 0.00 in0.0 mm
11:47 AM 36.3°F2.4°C 32.3°F0.2°C 80% 3.1 mph E5.0 kmh E 4.5 mph7.2 kmh 30.28 in1025.4 mb 0.00 in0.0 mm 0.00 in0.0 mm 0.00 in0.0 mm
11:52 AM 36.5°F2.5°C 32.2°F0.1°C 79% 3.8 mph SE6.1 kmh SE 6.9 mph11.1 kmh 30.28 in1025.4 mb 0.00 in0.0 mm 0.00 in0.0 mm 0.00 in0.0 mm
11:57 AM 36.3°F2.4°C 31.8°F-0.1°C 78% 4.5 mph ENE7.2 kmh ENE 7.6 mph12.2 kmh 30.28 in1025.4 mb 0.00 in0.0 mm 0.00 in0.0 mm 0.00 in0.0 mm
12:02 PM 36.3°F2.4°C 31.8°F-0.1°C 78% 4.5 mph NE7.2 kmh NE 6.9 mph11.1 kmh 30.28 in1025.4 mb 0.00 in0.0 mm 0.00 in0.0 mm 0.00 in0.0 mm
12:07 PM 36.3°F2.4°C 31.8°F-0.1°C 78% 4.5 mph SE7.2 kmh SE 6.9 mph11.1 kmh 30.29 in1025.7 mb 0.00 in0.0 mm 0.00 in0.0 mm 0.00 in0.0 mm
12:12 PM 36.1°F2.3°C 31.7°F-0.2°C 78% 4.5 mph E7.2 kmh E 6.0 mph9.7 kmh 30.28 in1025.4 mb 0.00 in0.0 mm 0.00 in0.0 mm 0.00 in0.0 mm
12:17 PM 36.0°F2.2°C 31.5°F-0.3°C 78% 3.1 mph E5.0 kmh E 5.4 mph8.7 kmh 30.28 in1025.4 mb 0.00 in0.0 mm 0.00 in0.0 mm 0.00 in0.0 mm
12:22 PM 36.3°F2.4°C 31.8°F-0.1°C 78% 2.2 mph S3.5 kmh S 5.4 mph8.7 kmh 30.28 in1025.4 mb 0.00 in0.0 mm 0.00 in0.0 mm 0.00 in0.0 mm
12:27 PM 36.3°F2.4°C 31.8°F-0.1°C 78% 3.8 mph 6.1 kmh 6.9 mph11.1 kmh 30.28 in1025.4 mb 0.00 in0.0 mm 0.00 in0.0 mm 0.00 in0.0 mm
12:32 PM 36.5°F2.5°C 32.0°F0.0°C 78% 3.8 mph E6.1 kmh E 5.4 mph8.7 kmh 30.28 in1025.4 mb 0.00 in0.0 mm 0.00 in0.0 mm 0.00 in0.0 mm
12:37 PM 36.7°F2.6°C 32.2°F0.1°C 78% 2.2 mph SE3.5 kmh SE 3.8 mph6.1 kmh 30.28 in1025.4 mb 0.00 in0.0 mm 0.00 in0.0 mm 0.00 in0.0 mm
12:42 PM 36.7°F2.6°C 32.2°F0.1°C 78% 4.5 mph E7.2 kmh E 6.0 mph9.7 kmh 30.28 in1025.4 mb 0.00 in0.0 mm 0.00 in0.0 mm 0.00 in0.0 mm
12:47 PM 36.5°F2.5°C 32.0°F0.0°C 78% 4.5 mph E7.2 kmh E 6.0 mph9.7 kmh 30.28 in1025.4 mb 0.00 in0.0 mm 0.00 in0.0 mm 0.00 in0.0 mm
12:52 PM 36.7°F2.6°C 32.2°F0.1°C 78% 3.8 mph NE6.1 kmh NE 6.0 mph9.7 kmh 30.28 in1025.4 mb 0.00 in0.0 mm 0.00 in0.0 mm 0.00 in0.0 mm
12:57 PM 36.7°F2.6°C 32.2°F0.1°C 78% 2.2 mph SE3.5 kmh SE 4.5 mph7.2 kmh 30.28 in1025.4 mb 0.00 in0.0 mm 0.00 in0.0 mm 0.00 in0.0 mm
01:02 PM 36.9°F2.7°C 32.4°F0.2°C 78% 1.6 mph S2.6 kmh S 2.2 mph3.5 kmh 30.28 in1025.4 mb 0.00 in0.0 mm 0.00 in0.0 mm 0.00 in0.0 mm
01:07 PM 37.2°F2.9°C 32.7°F0.4°C 78% 3.8 mph E6.1 kmh E 7.6 mph12.2 kmh 30.28 in1025.4 mb 0.00 in0.0 mm 0.00 in0.0 mm 0.00 in0.0 mm
01:12 PM 37.6°F3.1°C 34.0°F1.1°C 82% 3.1 mph E5.0 kmh E 5.4 mph8.7 kmh 30.28 in1025.4 mb 0.00 in0.0 mm 0.00 in0.0 mm 0.00 in0.0 mm
01:17 PM 37.9°F3.3°C 34.1°F1.2°C 81% 3.1 mph E5.0 kmh E 6.9 mph11.1 kmh 30.28 in1025.4 mb 0.00 in0.0 mm 0.00 in0.0 mm 0.00 in0.0 mm
01:22 PM 37.9°F3.3°C 33.9°F1.1°C 80% 3.1 mph NE5.0 kmh NE 7.6 mph12.2 kmh 30.28 in1025.4 mb 0.00 in0.0 mm 0.00 in0.0 mm 0.00 in0.0 mm
01:27 PM 37.9°F3.3°C 33.9°F1.1°C 80% 3.1 mph NE5.0 kmh NE 5.4 mph8.7 kmh 30.28 in1025.4 mb 0.00 in0.0 mm 0.00 in0.0 mm 0.00 in0.0 mm
01:32 PM 37.9°F3.3°C 33.9°F1.1°C 80% 2.2 mph SE3.5 kmh SE 3.8 mph6.1 kmh 30.28 in1025.4 mb 0.00 in0.0 mm 0.00 in0.0 mm 0.00 in0.0 mm
01:37 PM 38.1°F3.4°C 34.0°F1.1°C 80% 3.1 mph NE5.0 kmh NE 5.4 mph8.7 kmh 30.28 in1025.4 mb 0.00 in0.0 mm 0.00 in0.0 mm 0.00 in0.0 mm
01:42 PM 38.1°F3.4°C 34.0°F1.1°C 80% 1.6 mph ESE2.6 kmh ESE 3.1 mph5.0 kmh 30.28 in1025.4 mb 0.00 in0.0 mm 0.00 in0.0 mm 0.00 in0.0 mm
01:47 PM 38.5°F3.6°C 34.4°F1.3°C 80% 3.8 mph E6.1 kmh E 7.6 mph12.2 kmh 30.28 in1025.4 mb 0.00 in0.0 mm 0.00 in0.0 mm 0.00 in0.0 mm
01:52 PM 38.5°F3.6°C 34.2°F1.2°C 79% 1.6 mph E2.6 kmh E 3.1 mph5.0 kmh 30.28 in1025.4 mb 0.00 in0.0 mm 0.00 in0.0 mm 0.00 in0.0 mm
01:57 PM 38.7°F3.7°C 34.3°F1.3°C 79% 2.2 mph E3.5 kmh E 4.5 mph7.2 kmh 30.27 in1025.1 mb 0.00 in0.0 mm 0.00 in0.0 mm 0.00 in0.0 mm
02:02 PM 38.7°F3.7°C 34.1°F1.2°C 78% 2.2 mph E3.5 kmh E 3.8 mph6.1 kmh 30.28 in1025.4 mb 0.00 in0.0 mm 0.00 in0.0 mm 0.00 in0.0 mm
02:07 PM 38.8°F3.8°C 34.3°F1.3°C 78% 3.8 mph E6.1 kmh E 6.0 mph9.7 kmh 30.27 in1025.1 mb 0.00 in0.0 mm 0.00 in0.0 mm 0.00 in0.0 mm
02:12 PM 38.7°F3.7°C 33.9°F1.1°C 77% 5.4 mph NE8.7 kmh NE 9.2 mph14.8 kmh 30.27 in1025.1 mb 0.00 in0.0 mm 0.00 in0.0 mm 0.00 in0.0 mm
02:17 PM 38.8°F3.8°C 34.1°F1.2°C 77% 3.8 mph SE6.1 kmh SE 6.9 mph11.1 kmh 30.27 in1025.1 mb 0.00 in0.0 mm 0.00 in0.0 mm 0.00 in0.0 mm
02:22 PM 38.8°F3.8°C 34.1°F1.2°C 77% 2.2 mph SE3.5 kmh SE 3.8 mph6.1 kmh 30.27 in1025.1 mb 0.00 in0.0 mm 0.00 in0.0 mm 0.00 in0.0 mm
02:27 PM 38.8°F3.8°C 34.1°F1.2°C 77% 2.2 mph NE3.5 kmh NE 3.8 mph6.1 kmh 30.26 in1024.7 mb 0.00 in0.0 mm 0.00 in0.0 mm 0.00 in0.0 mm
02:32 PM 39.0°F3.9°C 34.2°F1.2°C 77% 3.1 mph E5.0 kmh E 6.0 mph9.7 kmh 30.26 in1024.7 mb 0.00 in0.0 mm 0.00 in0.0 mm 0.00 in0.0 mm
02:37 PM 39.0°F3.9°C 34.2°F1.2°C 77% 3.8 mph E6.1 kmh E 6.0 mph9.7 kmh 30.26 in1024.7 mb 0.00 in0.0 mm 0.00 in0.0 mm 0.00 in0.0 mm
02:42 PM 39.0°F3.9°C 34.0°F1.1°C 76% 3.1 mph NE5.0 kmh NE 6.0 mph9.7 kmh 30.26 in1024.7 mb 0.00 in0.0 mm 0.00 in0.0 mm 0.00 in0.0 mm
02:47 PM 39.0°F3.9°C 34.0°F1.1°C 76% 2.2 mph SE3.5 kmh SE 5.4 mph8.7 kmh 30.26 in1024.7 mb 0.00 in0.0 mm 0.00 in0.0 mm 0.00 in0.0 mm
02:52 PM 39.0°F3.9°C 34.0°F1.1°C 76% 1.6 mph NE2.6 kmh NE 4.5 mph7.2 kmh 30.26 in1024.7 mb 0.00 in0.0 mm 0.00 in0.0 mm 0.00 in0.0 mm
02:57 PM 38.8°F3.8°C 33.8°F1.0°C 76% 3.8 mph S6.1 kmh S 6.0 mph9.7 kmh 30.26 in1024.7 mb 0.00 in0.0 mm 0.00 in0.0 mm 0.00 in0.0 mm
03:02 PM 38.8°F3.8°C 33.8°F1.0°C 76% 5.4 mph E8.7 kmh E 8.3 mph13.4 kmh 30.26 in1024.7 mb 0.00 in0.0 mm 0.00 in0.0 mm 0.00 in0.0 mm
03:07 PM 38.8°F3.8°C 33.8°F1.0°C 76% 2.2 mph NE3.5 kmh NE 3.8 mph6.1 kmh 30.26 in1024.7 mb 0.00 in0.0 mm 0.00 in0.0 mm 0.00 in0.0 mm
03:12 PM 38.8°F3.8°C 33.8°F1.0°C 76% 2.2 mph NE3.5 kmh NE 3.8 mph6.1 kmh 30.26 in1024.7 mb 0.00 in0.0 mm 0.00 in0.0 mm 0.00 in0.0 mm
03:17 PM 38.7°F3.7°C 33.6°F0.9°C 76% 2.2 mph NE3.5 kmh NE 6.0 mph9.7 kmh 30.26 in1024.7 mb 0.00 in0.0 mm 0.00 in0.0 mm 0.00 in0.0 mm
03:22 PM 38.5°F3.6°C 33.5°F0.8°C 76% 1.6 mph E2.6 kmh E 3.8 mph6.1 kmh 30.26 in1024.7 mb 0.00 in0.0 mm 0.00 in0.0 mm 0.00 in0.0 mm
03:27 PM 38.5°F3.6°C 33.5°F0.8°C 76% 2.2 mph SW3.5 kmh SW 3.1 mph5.0 kmh 30.26 in1024.7 mb 0.00 in0.0 mm 0.00 in0.0 mm 0.00 in0.0 mm
03:32 PM 38.3°F3.5°C 33.3°F0.7°C 76% 4.5 mph NE7.2 kmh NE 6.0 mph9.7 kmh 30.26 in1024.7 mb 0.00 in0.0 mm 0.00 in0.0 mm 0.00 in0.0 mm
03:37 PM 38.1°F3.4°C 33.1°F0.6°C 76% 2.2 mph NE3.5 kmh NE 4.5 mph7.2 kmh 30.26 in1024.7 mb 0.00 in0.0 mm 0.00 in0.0 mm 0.00 in0.0 mm
03:42 PM 37.9°F3.3°C 33.0°F0.6°C 76% 3.8 mph S6.1 kmh S 6.9 mph11.1 kmh 30.26 in1024.7 mb 0.00 in0.0 mm 0.00 in0.0 mm 0.00 in0.0 mm
03:47 PM 37.8°F3.2°C 32.8°F0.4°C 76% 4.5 mph NE7.2 kmh NE 6.0 mph9.7 kmh 30.26 in1024.7 mb 0.00 in0.0 mm 0.00 in0.0 mm 0.00 in0.0 mm
03:52 PM 37.6°F3.1°C 32.6°F0.3°C 76% 2.2 mph E3.5 kmh E 3.1 mph5.0 kmh 30.26 in1024.7 mb 0.00 in0.0 mm 0.00 in0.0 mm 0.00 in0.0 mm
03:57 PM 37.4°F3.0°C 32.4°F0.2°C 76% 4.5 mph S7.2 kmh S 6.0 mph9.7 kmh 30.26 in1024.7 mb 0.00 in0.0 mm 0.00 in0.0 mm 0.00 in0.0 mm
04:02 PM 37.4°F3.0°C 32.4°F0.2°C 76% 6.0 mph NE9.7 kmh NE 9.2 mph14.8 kmh 30.26 in1024.7 mb 0.00 in0.0 mm 0.00 in0.0 mm 0.00 in0.0 mm
04:07 PM 37.2°F2.9°C 31.3°F-0.4°C 72% 2.2 mph NE3.5 kmh NE 3.8 mph6.1 kmh 30.26 in1024.7 mb 0.00 in0.0 mm 0.00 in0.0 mm 0.00 in0.0 mm
04:12 PM 37.0°F2.8°C 31.1°F-0.5°C 72% 4.5 mph 7.2 kmh 9.8 mph15.8 kmh 30.26 in1024.7 mb 0.00 in0.0 mm 0.00 in0.0 mm 0.00 in0.0 mm
04:17 PM 37.0°F2.8°C 31.1°F-0.5°C 72% 4.5 mph E7.2 kmh E 6.0 mph9.7 kmh 30.26 in1024.7 mb 0.00 in0.0 mm 0.00 in0.0 mm 0.00 in0.0 mm
04:22 PM 36.9°F2.7°C 31.0°F-0.6°C 72% 6.9 mph S11.1 kmh S 8.3 mph13.4 kmh 30.26 in1024.7 mb 0.00 in0.0 mm 0.00 in0.0 mm 0.00 in0.0 mm
04:27 PM 36.9°F2.7°C 31.0°F-0.6°C 72% 3.1 mph SE5.0 kmh SE 6.0 mph9.7 kmh 30.26 in1024.7 mb 0.00 in0.0 mm 0.00 in0.0 mm 0.00 in0.0 mm
04:32 PM 36.7°F2.6°C 30.8°F-0.7°C 72% 3.1 mph NE5.0 kmh NE 4.5 mph7.2 kmh 30.26 in1024.7 mb 0.00 in0.0 mm 0.00 in0.0 mm 0.00 in0.0 mm
04:37 PM 36.5°F2.5°C 30.6°F-0.8°C 72% 3.8 mph NE6.1 kmh NE 6.0 mph9.7 kmh 30.26 in1024.7 mb 0.00 in0.0 mm 0.00 in0.0 mm 0.00 in0.0 mm
04:42 PM 36.5°F2.5°C 30.6°F-0.8°C 72% 4.5 mph E7.2 kmh E 6.9 mph11.1 kmh 30.26 in1024.7 mb 0.00 in0.0 mm 0.00 in0.0 mm 0.00 in0.0 mm
04:47 PM 36.5°F2.5°C 30.6°F-0.8°C 72% 6.0 mph E9.7 kmh E 8.3 mph13.4 kmh 30.27 in1025.1 mb 0.00 in0.0 mm 0.00 in0.0 mm 0.00 in0.0 mm
04:52 PM 36.3°F2.4°C 30.4°F-0.9°C 72% 6.0 mph NE9.7 kmh NE 9.2 mph14.8 kmh 30.26 in1024.7 mb 0.00 in0.0 mm 0.00 in0.0 mm 0.00 in0.0 mm
04:57 PM 36.3°F2.4°C 30.4°F-0.9°C 72% 8.3 mph 13.4 kmh 9.8 mph15.8 kmh 30.26 in1024.7 mb 0.00 in0.0 mm 0.00 in0.0 mm 0.00 in0.0 mm
05:02 PM 36.3°F2.4°C 30.4°F-0.9°C 72% 3.8 mph NE6.1 kmh NE 6.0 mph9.7 kmh 30.26 in1024.7 mb 0.00 in0.0 mm 0.00 in0.0 mm 0.00 in0.0 mm
05:07 PM 36.1°F2.3°C 30.3°F-0.9°C 72% 4.5 mph 7.2 kmh 6.0 mph9.7 kmh 30.26 in1024.7 mb 0.00 in0.0 mm 0.00 in0.0 mm 0.00 in0.0 mm
05:12 PM 36.0°F2.2°C 30.1°F-1.1°C 72% 3.1 mph E5.0 kmh E 5.4 mph8.7 kmh 30.26 in1024.7 mb 0.00 in0.0 mm 0.00 in0.0 mm 0.00 in0.0 mm
05:17 PM 35.8°F2.1°C 29.9°F-1.2°C 72% 6.0 mph 9.7 kmh 9.2 mph14.8 kmh 30.26 in1024.7 mb 0.00 in0.0 mm 0.00 in0.0 mm 0.00 in0.0 mm
05:22 PM 35.8°F2.1°C 29.9°F-1.2°C 72% 5.4 mph NE8.7 kmh NE 12.1 mph19.5 kmh 30.27 in1025.1 mb 0.00 in0.0 mm 0.00 in0.0 mm 0.00 in0.0 mm
05:27 PM 35.8°F2.1°C 29.9°F-1.2°C 72% 5.4 mph NE8.7 kmh NE 8.3 mph13.4 kmh 30.26 in1024.7 mb 0.00 in0.0 mm 0.00 in0.0 mm 0.00 in0.0 mm
05:32 PM 35.8°F2.1°C 29.9°F-1.2°C 72% 3.8 mph S6.1 kmh S 6.9 mph11.1 kmh 30.26 in1024.7 mb 0.00 in0.0 mm 0.00 in0.0 mm 0.00 in0.0 mm
05:37 PM 35.6°F2.0°C 29.8°F-1.2°C 72% 6.0 mph NE9.7 kmh NE 9.2 mph14.8 kmh 30.26 in1024.7 mb 0.00 in0.0 mm 0.00 in0.0 mm 0.00 in0.0 mm
05:42 PM 35.6°F2.0°C 29.8°F-1.2°C 72% 4.5 mph NE7.2 kmh NE 6.9 mph11.1 kmh 30.26 in1024.7 mb 0.00 in0.0 mm 0.00 in0.0 mm 0.00 in0.0 mm
05:47 PM 35.6°F2.0°C 29.8°F-1.2°C 72% 4.5 mph NE7.2 kmh NE 7.6 mph12.2 kmh 30.26 in1024.7 mb 0.00 in0.0 mm 0.00 in0.0 mm 0.00 in0.0 mm
05:52 PM 35.4°F1.9°C 29.8°F-1.2°C 73% 6.0 mph 9.7 kmh 9.8 mph15.8 kmh 30.26 in1024.7 mb 0.00 in0.0 mm 0.00 in0.0 mm 0.00 in0.0 mm
05:57 PM 35.2°F1.8°C 29.6°F-1.3°C 73% 5.4 mph E8.7 kmh E 8.3 mph13.4 kmh 30.26 in1024.7 mb 0.00 in0.0 mm 0.00 in0.0 mm 0.00 in0.0 mm
06:02 PM 35.1°F1.7°C 29.5°F-1.4°C 73% 6.0 mph NE9.7 kmh NE 9.8 mph15.8 kmh 30.25 in1024.4 mb 0.00 in0.0 mm 0.00 in0.0 mm 0.00 in0.0 mm
06:07 PM 35.1°F1.7°C 29.5°F-1.4°C 73% 6.0 mph E9.7 kmh E 9.8 mph15.8 kmh 30.25 in1024.4 mb 0.00 in0.0 mm 0.00 in0.0 mm 0.00 in0.0 mm
06:12 PM 34.9°F1.6°C 29.3°F-1.5°C 73% 6.0 mph E9.7 kmh E 9.8 mph15.8 kmh 30.25 in1024.4 mb 0.00 in0.0 mm 0.00 in0.0 mm 0.00 in0.0 mm
06:17 PM 34.9°F1.6°C 29.3°F-1.5°C 73% 3.8 mph E6.1 kmh E 6.9 mph11.1 kmh 30.25 in1024.4 mb 0.00 in0.0 mm 0.00 in0.0 mm 0.00 in0.0 mm
06:22 PM 34.7°F1.5°C 29.1°F-1.6°C 73% 4.5 mph E7.2 kmh E 7.6 mph12.2 kmh 30.25 in1024.4 mb 0.00 in0.0 mm 0.00 in0.0 mm 0.00 in0.0 mm
06:27 PM 34.7°F1.5°C 29.1°F-1.6°C 73% 5.4 mph E8.7 kmh E 9.2 mph14.8 kmh 30.25 in1024.4 mb 0.00 in0.0 mm 0.00 in0.0 mm 0.00 in0.0 mm
06:32 PM 34.7°F1.5°C 29.1°F-1.6°C 73% 4.5 mph NNW7.2 kmh NNW 6.9 mph11.1 kmh 30.25 in1024.4 mb 0.00 in0.0 mm 0.00 in0.0 mm 0.00 in0.0 mm
06:37 PM 34.5°F1.4°C 29.0°F-1.7°C 73% 6.0 mph E9.7 kmh E 9.2 mph14.8 kmh 30.25 in1024.4 mb 0.00 in0.0 mm 0.00 in0.0 mm 0.00 in0.0 mm
06:42 PM 34.5°F1.4°C 29.0°F-1.7°C 73% 5.4 mph SSW8.7 kmh SSW 7.6 mph12.2 kmh 30.25 in1024.4 mb 0.00 in0.0 mm 0.00 in0.0 mm 0.00 in0.0 mm
06:47 PM 34.5°F1.4°C 29.2°F-1.6°C 74% 4.5 mph SE7.2 kmh SE 6.9 mph11.1 kmh 30.25 in1024.4 mb 0.00 in0.0 mm 0.00 in0.0 mm 0.00 in0.0 mm
06:52 PM 34.3°F1.3°C 29.0°F-1.7°C 74% 7.6 mph E12.2 kmh E 11.4 mph18.3 kmh 30.25 in1024.4 mb 0.00 in0.0 mm 0.00 in0.0 mm 0.00 in0.0 mm
06:57 PM 34.3°F1.3°C 29.0°F-1.7°C 74% 3.8 mph S6.1 kmh S 6.0 mph9.7 kmh 30.25 in1024.4 mb 0.00 in0.0 mm 0.00 in0.0 mm 0.00 in0.0 mm
07:02 PM 34.2°F1.2°C 28.8°F-1.8°C 74% 6.9 mph E11.1 kmh E 10.7 mph17.2 kmh 30.25 in1024.4 mb 0.00 in0.0 mm 0.00 in0.0 mm 0.00 in0.0 mm
07:07 PM 34.2°F1.2°C 28.8°F-1.8°C 74% 3.1 mph NE5.0 kmh NE 5.4 mph8.7 kmh 30.25 in1024.4 mb 0.00 in0.0 mm 0.00 in0.0 mm 0.00 in0.0 mm
07:12 PM 34.2°F1.2°C 29.1°F-1.6°C 75% 3.8 mph NE6.1 kmh NE 5.4 mph8.7 kmh 30.25 in1024.4 mb 0.00 in0.0 mm 0.00 in0.0 mm 0.00 in0.0 mm
07:17 PM 34.0°F1.1°C 28.9°F-1.7°C 75% 5.4 mph E8.7 kmh E 8.3 mph13.4 kmh 30.25 in1024.4 mb 0.00 in0.0 mm 0.00 in0.0 mm 0.00 in0.0 mm
07:22 PM 34.0°F1.1°C 28.9°F-1.7°C 75% 5.4 mph 8.7 kmh 7.6 mph12.2 kmh 30.24 in1024.0 mb 0.00 in0.0 mm 0.00 in0.0 mm 0.00 in0.0 mm
07:27 PM 33.8°F1.0°C 28.7°F-1.8°C 75% 3.1 mph 5.0 kmh 6.0 mph9.7 kmh 30.25 in1024.4 mb 0.00 in0.0 mm 0.00 in0.0 mm 0.00 in0.0 mm
07:32 PM 33.8°F1.0°C 29.0°F-1.7°C 76% 2.2 mph E3.5 kmh E 3.1 mph5.0 kmh 30.25 in1024.4 mb 0.00 in0.0 mm 0.00 in0.0 mm 0.00 in0.0 mm
07:37 PM 33.6°F0.9°C 29.0°F-1.7°C 77% 4.5 mph NE7.2 kmh NE 6.0 mph9.7 kmh 30.25 in1024.4 mb 0.00 in0.0 mm 0.00 in0.0 mm 0.00 in0.0 mm
07:42 PM 33.6°F0.9°C 29.0°F-1.7°C 77% 5.4 mph E8.7 kmh E 6.0 mph9.7 kmh 30.25 in1024.4 mb 0.00 in0.0 mm 0.00 in0.0 mm 0.00 in0.0 mm
07:47 PM 33.4°F0.8°C 29.1°F-1.6°C 78% 3.1 mph SE5.0 kmh SE 8.3 mph13.4 kmh 30.25 in1024.4 mb 0.00 in0.0 mm 0.00 in0.0 mm 0.00 in0.0 mm
07:52 PM 33.4°F0.8°C 29.1°F-1.6°C 78% 2.2 mph SE3.5 kmh SE 3.8 mph6.1 kmh 30.25 in1024.4 mb 0.00 in0.0 mm 0.00 in0.0 mm 0.00 in0.0 mm
07:57 PM 33.4°F0.8°C 29.1°F-1.6°C 78% 4.5 mph WNW7.2 kmh WNW 7.6 mph12.2 kmh 30.25 in1024.4 mb 0.00 in0.0 mm 0.00 in0.0 mm 0.00 in0.0 mm
08:02 PM 33.3°F0.7°C 29.1°F-1.6°C 79% 6.0 mph SE9.7 kmh SE 9.2 mph14.8 kmh 30.25 in1024.4 mb 0.00 in0.0 mm 0.00 in0.0 mm 0.00 in0.0 mm
08:07 PM 33.1°F0.6°C 28.9°F-1.7°C 79% 3.1 mph NE5.0 kmh NE 7.6 mph12.2 kmh 30.25 in1024.4 mb 0.00 in0.0 mm 0.00 in0.0 mm 0.00 in0.0 mm
08:12 PM 33.1°F0.6°C 28.9°F-1.7°C 79% 3.8 mph 6.1 kmh 8.3 mph13.4 kmh 30.25 in1024.4 mb 0.00 in0.0 mm 0.00 in0.0 mm 0.00 in0.0 mm
08:17 PM 32.9°F0.5°C 28.8°F-1.8°C 79% 4.5 mph E7.2 kmh E 7.6 mph12.2 kmh 30.25 in1024.4 mb 0.00 in0.0 mm 0.00 in0.0 mm 0.00 in0.0 mm
08:22 PM 32.9°F0.5°C 29.0°F-1.7°C 80% 3.8 mph NE6.1 kmh NE 6.9 mph11.1 kmh 30.25 in1024.4 mb 0.00 in0.0 mm 0.00 in0.0 mm 0.00 in0.0 mm
08:27 PM 32.9°F0.5°C 29.0°F-1.7°C 80% 5.4 mph E8.7 kmh E 11.4 mph18.3 kmh 30.25 in1024.4 mb 0.00 in0.0 mm 0.00 in0.0 mm 0.00 in0.0 mm
08:32 PM 32.9°F0.5°C 29.0°F-1.7°C 80% 3.1 mph SE5.0 kmh SE 6.9 mph11.1 kmh 30.25 in1024.4 mb 0.00 in0.0 mm 0.00 in0.0 mm 0.00 in0.0 mm
08:37 PM 32.7°F0.4°C 28.8°F-1.8°C 80% 4.5 mph NE7.2 kmh NE 9.8 mph15.8 kmh 30.25 in1024.4 mb 0.00 in0.0 mm 0.00 in0.0 mm 0.00 in0.0 mm
08:42 PM 32.7°F0.4°C 28.8°F-1.8°C 80% 5.4 mph 8.7 kmh 6.0 mph9.7 kmh 30.25 in1024.4 mb 0.00 in0.0 mm 0.00 in0.0 mm 0.00 in0.0 mm
08:47 PM 32.5°F0.3°C 28.6°F-1.9°C 80% 4.5 mph SE7.2 kmh SE 6.9 mph11.1 kmh 30.25 in1024.4 mb 0.00 in0.0 mm 0.00 in0.0 mm 0.00 in0.0 mm
08:52 PM 32.5°F0.3°C 28.6°F-1.9°C 80% 6.0 mph E9.7 kmh E 8.3 mph13.4 kmh 30.25 in1024.4 mb 0.00 in0.0 mm 0.00 in0.0 mm 0.00 in0.0 mm
08:57 PM 32.5°F0.3°C 28.8°F-1.8°C 81% 2.2 mph NE3.5 kmh NE 4.5 mph7.2 kmh 30.25 in1024.4 mb 0.00 in0.0 mm 0.00 in0.0 mm 0.00 in0.0 mm
09:02 PM 32.5°F0.3°C 28.8°F-1.8°C 81% 6.0 mph E9.7 kmh E 8.3 mph13.4 kmh 30.25 in1024.4 mb 0.00 in0.0 mm 0.00 in0.0 mm 0.00 in0.0 mm
09:07 PM 32.4°F0.2°C 28.7°F-1.8°C 81% 4.5 mph E7.2 kmh E 7.6 mph12.2 kmh 30.25 in1024.4 mb 0.00 in0.0 mm 0.00 in0.0 mm 0.00 in0.0 mm
09:12 PM 32.4°F0.2°C 28.7°F-1.8°C 81% 7.6 mph NE12.2 kmh NE 10.7 mph17.2 kmh 30.25 in1024.4 mb 0.00 in0.0 mm 0.00 in0.0 mm 0.00 in0.0 mm
09:17 PM 32.4°F0.2°C 28.7°F-1.8°C 81% 4.5 mph SE7.2 kmh SE 6.9 mph11.1 kmh 30.25 in1024.4 mb 0.00 in0.0 mm 0.00 in0.0 mm 0.00 in0.0 mm
09:22 PM 32.4°F0.2°C 28.7°F-1.8°C 81% 3.8 mph 6.1 kmh 7.6 mph12.2 kmh 30.24 in1024.0 mb 0.00 in0.0 mm 0.00 in0.0 mm 0.00 in0.0 mm
09:27 PM 32.4°F0.2°C 28.7°F-1.8°C 81% 5.4 mph 8.7 kmh 6.9 mph11.1 kmh 30.24 in1024.0 mb 0.00 in0.0 mm 0.00 in0.0 mm 0.00 in0.0 mm
09:32 PM 32.2°F0.1°C 28.7°F-1.8°C 82% 4.5 mph NW7.2 kmh NW 6.9 mph11.1 kmh 30.25 in1024.4 mb 0.00 in0.0 mm 0.00 in0.0 mm 0.00 in0.0 mm
09:37 PM 32.2°F0.1°C 28.7°F-1.8°C 82% 3.1 mph NNE5.0 kmh NNE 6.0 mph9.7 kmh 30.25 in1024.4 mb 0.00 in0.0 mm 0.00 in0.0 mm 0.00 in0.0 mm
09:42 PM 32.2°F0.1°C 28.7°F-1.8°C 82% 4.5 mph SW7.2 kmh SW 6.0 mph9.7 kmh 30.24 in1024.0 mb 0.00 in0.0 mm 0.00 in0.0 mm 0.00 in0.0 mm
09:47 PM 32.2°F0.1°C 28.7°F-1.8°C 82% 1.6 mph SW2.6 kmh SW 3.1 mph5.0 kmh 30.25 in1024.4 mb 0.00 in0.0 mm 0.00 in0.0 mm 0.00 in0.0 mm
09:52 PM 32.0°F0.0°C 28.5°F-1.9°C 82% 2.2 mph S3.5 kmh S 4.5 mph7.2 kmh 30.26 in1024.7 mb 0.00 in0.0 mm 0.00 in0.0 mm 0.00 in0.0 mm
09:57 PM 32.0°F0.0°C 28.5°F-1.9°C 82% 0.7 mph SE1.1 kmh SE 3.1 mph5.0 kmh 30.25 in1024.4 mb 0.00 in0.0 mm 0.00 in0.0 mm 0.00 in0.0 mm
10:02 PM 32.0°F0.0°C 28.5°F-1.9°C 82% Calm Calm 2.2 mph3.5 kmh 30.25 in1024.4 mb 0.00 in0.0 mm 0.00 in0.0 mm 0.00 in0.0 mm
10:07 PM 32.0°F0.0°C 28.5°F-1.9°C 82% 3.1 mph E5.0 kmh E 5.4 mph8.7 kmh 30.26 in1024.7 mb 0.00 in0.0 mm 0.00 in0.0 mm 0.00 in0.0 mm
10:12 PM 32.0°F0.0°C 28.5°F-1.9°C 82% 4.5 mph E7.2 kmh E 6.0 mph9.7 kmh 30.26 in1024.7 mb 0.00 in0.0 mm 0.00 in0.0 mm 0.00 in0.0 mm
10:17 PM 31.8°F-0.1°C 28.6°F-1.9°C 83% 2.2 mph E3.5 kmh E 4.5 mph7.2 kmh 30.25 in1024.4 mb 0.00 in0.0 mm 0.00 in0.0 mm 0.00 in0.0 mm
10:22 PM 31.8°F-0.1°C 28.8°F-1.8°C 84% 3.8 mph S6.1 kmh S 5.4 mph8.7 kmh 30.26 in1024.7 mb 0.00 in0.0 mm 0.00 in0.0 mm 0.00 in0.0 mm
10:27 PM 31.6°F-0.2°C 28.6°F-1.9°C 84% 3.8 mph NE6.1 kmh NE 6.9 mph11.1 kmh 30.25 in1024.4 mb 0.00 in0.0 mm 0.00 in0.0 mm 0.00 in0.0 mm
10:32 PM 31.6°F-0.2°C 28.6°F-1.9°C 84% 2.2 mph E3.5 kmh E 5.4 mph8.7 kmh 30.25 in1024.4 mb 0.00 in0.0 mm 0.00 in0.0 mm 0.00 in0.0 mm
10:37 PM 31.5°F-0.3°C 28.4°F-2.0°C 84% 2.2 mph E3.5 kmh E 4.5 mph7.2 kmh 30.25 in1024.4 mb 0.00 in0.0 mm 0.00 in0.0 mm 0.00 in0.0 mm
10:42 PM 31.5°F-0.3°C 28.4°F-2.0°C 84% 3.1 mph E5.0 kmh E 6.0 mph9.7 kmh 30.25 in1024.4 mb 0.00 in0.0 mm 0.00 in0.0 mm 0.00 in0.0 mm
10:47 PM 31.3°F-0.4°C 28.2°F-2.1°C 84% 0.7 mph NE1.1 kmh NE 2.2 mph3.5 kmh 30.25 in1024.4 mb 0.00 in0.0 mm 0.00 in0.0 mm 0.00 in0.0 mm
10:52 PM 31.3°F-0.4°C 28.2°F-2.1°C 84% 3.1 mph NE5.0 kmh NE 5.4 mph8.7 kmh 30.25 in1024.4 mb 0.00 in0.0 mm 0.00 in0.0 mm 0.00 in0.0 mm
10:57 PM 31.1°F-0.5°C 28.3°F-2.1°C 85% 3.8 mph E6.1 kmh E 5.4 mph8.7 kmh 30.25 in1024.4 mb 0.00 in0.0 mm 0.00 in0.0 mm 0.00 in0.0 mm
11:02 PM 31.1°F-0.5°C 28.3°F-2.1°C 85% 2.2 mph SE3.5 kmh SE 3.8 mph6.1 kmh 30.26 in1024.7 mb 0.00 in0.0 mm 0.00 in0.0 mm 0.00 in0.0 mm
11:07 PM 30.9°F-0.6°C 28.1°F-2.2°C 85% 2.2 mph SE3.5 kmh SE 3.8 mph6.1 kmh 30.25 in1024.4 mb 0.00 in0.0 mm 0.00 in0.0 mm 0.00 in0.0 mm
11:12 PM 30.9°F-0.6°C 28.1°F-2.2°C 85% 4.5 mph NW7.2 kmh NW 6.9 mph11.1 kmh 30.25 in1024.4 mb 0.00 in0.0 mm 0.00 in0.0 mm 0.00 in0.0 mm
11:17 PM 30.9°F-0.6°C 28.1°F-2.2°C 85% 3.8 mph E6.1 kmh E 7.6 mph12.2 kmh 30.25 in1024.4 mb 0.00 in0.0 mm 0.00 in0.0 mm 0.00 in0.0 mm
11:22 PM 30.9°F-0.6°C 28.1°F-2.2°C 85% 3.8 mph NE6.1 kmh NE 5.4 mph8.7 kmh 30.26 in1024.7 mb 0.00 in0.0 mm 0.00 in0.0 mm 0.00 in0.0 mm
11:27 PM 30.9°F-0.6°C 28.1°F-2.2°C 85% 5.4 mph SE8.7 kmh SE 6.9 mph11.1 kmh 30.26 in1024.7 mb 0.00 in0.0 mm 0.00 in0.0 mm 0.00 in0.0 mm
11:32 PM 30.9°F-0.6°C 28.3°F-2.1°C 86% 4.5 mph SW7.2 kmh SW 6.9 mph11.1 kmh 30.26 in1024.7 mb 0.00 in0.0 mm 0.00 in0.0 mm 0.00 in0.0 mm
11:37 PM 30.9°F-0.6°C 28.3°F-2.1°C 86% 3.8 mph NNW6.1 kmh NNW 7.6 mph12.2 kmh 30.26 in1024.7 mb 0.00 in0.0 mm 0.00 in0.0 mm 0.00 in0.0 mm
11:42 PM 30.9°F-0.6°C 28.3°F-2.1°C 86% 3.8 mph E6.1 kmh E 6.0 mph9.7 kmh 30.25 in1024.4 mb 0.00 in0.0 mm 0.00 in0.0 mm 0.00 in0.0 mm
11:47 PM 30.9°F-0.6°C 28.3°F-2.1°C 86% 3.8 mph SW6.1 kmh SW 8.3 mph13.4 kmh 30.26 in1024.7 mb 0.00 in0.0 mm 0.00 in0.0 mm 0.00 in0.0 mm
11:52 PM 30.9°F-0.6°C 28.3°F-2.1°C 86% 3.8 mph E6.1 kmh E 6.9 mph11.1 kmh 30.26 in1024.7 mb 0.00 in0.0 mm 0.00 in0.0 mm 0.00 in0.0 mm
11:57 PM 30.9°F-0.6°C 28.3°F-2.1°C 86% 3.8 mph E6.1 kmh E 6.0 mph9.7 kmh 30.25 in1024.4 mb 0.00 in0.0 mm 0.00 in0.0 mm 0.00 in0.0 mm